createdAt,value
2019-05-15T00:01:54.478Z,14.48
2019-05-15T00:04:21.057Z,14.66
2019-05-15T00:06:48.627Z,14.75
2019-05-15T00:09:15.621Z,14.84
2019-05-15T00:11:42.331Z,14.88
2019-05-15T00:14:09.201Z,14.94
2019-05-15T00:16:38.418Z,14.97
2019-05-15T00:19:04.262Z,14.95
2019-05-15T00:21:31.066Z,14.84
2019-05-15T00:23:58.651Z,14.89
2019-05-15T00:26:25.908Z,14.91
2019-05-15T00:28:52.654Z,14.85
2019-05-15T00:31:19.533Z,14.77
2019-05-15T00:33:48.173Z,14.97
2019-05-15T00:36:14.450Z,15.05
2019-05-15T00:38:41.132Z,15.02
2019-05-15T00:41:09.395Z,15.08
2019-05-15T00:43:38.491Z,14.95
2019-05-15T00:46:05.404Z,15.00
2019-05-15T00:48:32.203Z,15.03
2019-05-15T00:50:59.050Z,15.30
2019-05-15T00:53:28.100Z,15.06
2019-05-15T00:55:54.286Z,15.14
2019-05-15T00:58:21.159Z,15.22
2019-05-15T01:00:48.661Z,15.00
2019-05-15T01:03:18.051Z,14.90
2019-05-15T01:05:44.141Z,14.97
2019-05-15T01:08:11.126Z,15.02
2019-05-15T01:10:38.721Z,14.97
2019-05-15T01:13:07.757Z,14.90
2019-05-15T01:15:33.908Z,14.93
2019-05-15T01:18:00.553Z,14.93
2019-05-15T01:20:28.582Z,14.82
2019-05-15T01:22:55.614Z,14.95
2019-05-15T01:25:22.579Z,14.91
2019-05-15T01:27:49.775Z,15.00
2019-05-15T01:30:17.973Z,14.75
2019-05-15T01:32:45.163Z,14.69
2019-05-15T01:35:11.765Z,14.65
2019-05-15T01:40:11.583Z,14.82
2019-05-15T01:42:38.807Z,14.87
2019-05-15T01:45:08.372Z,14.92
2019-05-15T01:47:34.979Z,15.09
2019-05-15T01:50:02.115Z,14.99
2019-05-15T01:52:28.771Z,14.95
2019-05-15T01:54:58.102Z,14.89
2019-05-15T01:57:23.943Z,14.93
2019-05-15T01:59:57.023Z,14.89
2019-05-15T02:02:19.085Z,15.02
2019-05-15T02:04:48.431Z,14.95
2019-05-15T02:07:14.136Z,14.84
2019-05-15T02:09:40.789Z,14.80
2019-05-15T02:12:09.557Z,14.79
2019-05-15T02:14:39.023Z,14.71
2019-05-15T02:17:08.504Z,14.68
2019-05-15T02:19:39.009Z,14.56
2019-05-15T02:22:03.488Z,14.69
2019-05-15T02:24:30.366Z,14.80
2019-05-15T02:26:58.812Z,14.80
2019-05-15T02:29:28.981Z,14.74
2019-05-15T02:31:58.838Z,14.97
2019-05-15T02:34:23.941Z,14.92
2019-05-15T02:36:51.072Z,14.92
2019-05-15T02:39:19.204Z,14.99
2019-05-15T02:41:49.098Z,15.06
2019-05-15T02:44:19.940Z,15.13
2019-05-15T02:46:49.714Z,15.14
2019-05-15T02:49:15.003Z,15.07
2019-05-15T02:51:41.855Z,14.88
2019-05-15T02:54:10.193Z,14.93
2019-05-15T02:56:39.279Z,14.84
2019-05-15T02:59:09.009Z,14.75
2019-05-15T03:01:33.975Z,14.94
2019-05-15T03:04:00.954Z,14.94
2019-05-15T03:06:29.807Z,14.94
2019-05-15T03:08:59.584Z,15.01
2019-05-15T03:11:24.783Z,14.90
2019-05-15T03:13:51.406Z,15.07
2019-05-15T03:16:19.401Z,15.28
2019-05-15T03:18:46.350Z,15.34
2019-05-15T03:21:13.385Z,15.44
2019-05-15T03:23:40.611Z,15.17
2019-05-15T03:26:08.818Z,15.10
2019-05-15T03:28:38.803Z,14.92
2019-05-15T03:31:30.446Z,15.02
2019-05-15T03:33:36.211Z,14.87
2019-05-15T03:36:03.332Z,14.75
2019-05-15T03:38:30.211Z,14.84
2019-05-15T03:40:59.536Z,14.92
2019-05-15T03:43:25.334Z,14.93
2019-05-15T03:45:52.127Z,14.95
2019-05-15T03:48:19.640Z,14.86
2019-05-15T03:50:48.900Z,14.77
2019-05-15T03:53:15.242Z,14.69
2019-05-15T03:55:41.893Z,14.81
2019-05-15T03:58:09.865Z,14.90
2019-05-15T04:00:39.518Z,14.94
2019-05-15T04:03:05.166Z,14.90
2019-05-15T04:05:32.074Z,15.07
2019-05-15T04:08:00.143Z,15.17
2019-05-15T04:10:28.815Z,15.14
2019-05-15T04:12:56.128Z,15.14
2019-05-15T04:15:22.912Z,15.28
2019-05-15T04:17:49.733Z,15.21
2019-05-15T04:20:19.850Z,15.22
2019-05-15T04:22:44.752Z,14.98
2019-05-15T04:25:11.601Z,14.73
2019-05-15T04:27:39.106Z,14.45
2019-05-15T04:30:06.113Z,14.63
2019-05-15T04:32:32.708Z,14.88
2019-05-15T04:34:59.640Z,14.85
2019-05-15T04:37:29.644Z,14.94
2019-05-15T04:39:54.558Z,14.88
2019-05-15T04:42:21.449Z,14.93
2019-05-15T04:44:49.458Z,15.08
2019-05-15T04:47:19.213Z,15.01
2019-05-15T04:49:44.780Z,15.04
2019-05-15T04:52:11.518Z,15.08
2019-05-15T04:54:40.251Z,14.99
2019-05-15T04:57:09.285Z,14.98
2019-05-15T04:59:38.716Z,15.08
2019-05-15T05:02:17.025Z,15.24
2019-05-15T05:04:33.325Z,15.24
2019-05-15T05:06:59.945Z,15.33
2019-05-15T05:09:28.863Z,15.35
2019-05-15T05:11:55.243Z,15.31
2019-05-15T05:14:21.837Z,15.54
2019-05-15T05:16:49.038Z,15.48
2019-05-15T05:19:15.824Z,15.41
2019-05-15T05:21:42.450Z,15.20
2019-05-15T05:24:09.063Z,15.29
2019-05-15T05:26:38.058Z,15.13
2019-05-15T05:29:03.984Z,15.21
2019-05-15T05:31:30.733Z,15.32
2019-05-15T05:33:57.792Z,15.27
2019-05-15T05:36:24.426Z,15.23
2019-05-15T05:38:51.310Z,15.11
2019-05-15T05:41:18.948Z,15.03
2019-05-15T05:43:45.672Z,15.08
2019-05-15T05:46:12.243Z,15.04
2019-05-15T05:48:39.204Z,15.18
2019-05-15T05:51:05.834Z,15.24
2019-05-15T05:53:32.428Z,15.36
2019-05-15T05:55:59.528Z,15.35
2019-05-15T05:58:26.131Z,15.43
2019-05-15T06:00:52.725Z,15.70
2019-05-15T06:03:20.028Z,15.83
2019-05-15T06:05:49.137Z,15.70
2019-05-15T06:08:15.044Z,15.77
2019-05-15T06:10:41.618Z,15.52
2019-05-15T06:13:08.825Z,14.97
2019-05-15T06:15:37.846Z,15.03
2019-05-15T06:18:04.105Z,15.29
2019-05-15T06:20:30.912Z,15.44
2019-05-15T06:22:58.286Z,15.66
2019-05-15T06:25:24.914Z,15.68
2019-05-15T06:27:51.508Z,15.69
2019-05-15T06:30:21.885Z,15.63
2019-05-15T06:33:01.947Z,15.15
2019-05-15T06:35:15.166Z,15.01
2019-05-15T06:37:42.051Z,15.02
2019-05-15T06:40:09.015Z,15.34
2019-05-15T06:42:35.811Z,15.43
2019-05-15T06:45:02.668Z,15.61
2019-05-15T06:47:29.434Z,15.96
2019-05-15T06:49:58.001Z,16.25
2019-05-15T06:52:24.626Z,16.18
2019-05-15T06:54:52.249Z,15.99
2019-05-15T06:57:18.982Z,15.97
2019-05-15T06:59:45.843Z,16.24
2019-05-15T07:02:13.149Z,16.41
2019-05-15T07:04:39.814Z,16.56
2019-05-15T07:07:10.948Z,16.42
2019-05-15T07:09:37.872Z,16.51
2019-05-15T07:12:04.265Z,16.74
2019-05-15T07:14:33.813Z,16.83
2019-05-15T07:17:03.040Z,16.78
2019-05-15T07:19:29.775Z,16.69
2019-05-15T07:21:59.684Z,17.07
2019-05-15T07:24:28.772Z,16.64
2019-05-15T07:26:54.813Z,16.53
2019-05-15T07:29:21.490Z,16.42
2019-05-15T07:31:48.766Z,16.65
2019-05-15T07:34:23.308Z,16.86
2019-05-15T07:36:53.602Z,16.92
2019-05-15T07:39:21.767Z,17.00
2019-05-15T07:41:48.508Z,16.89
2019-05-15T07:44:15.406Z,16.74
2019-05-15T07:46:42.288Z,16.78
2019-05-15T07:49:09.274Z,16.85
2019-05-15T07:51:38.015Z,16.85
2019-05-15T07:54:04.641Z,16.86
2019-05-15T07:56:31.551Z,17.08
2019-05-15T07:58:58.725Z,17.30
2019-05-15T08:01:25.812Z,17.30
2019-05-15T08:04:09.280Z,17.16
2019-05-15T08:06:24.113Z,17.24
2019-05-15T08:08:49.256Z,17.38
2019-05-15T08:11:20.645Z,17.52
2019-05-15T08:13:44.225Z,17.51
2019-05-15T08:16:11.460Z,17.58
2019-05-15T08:18:39.434Z,17.65
2019-05-15T08:21:08.792Z,17.51
2019-05-15T08:23:35.025Z,17.75
2019-05-15T08:26:02.203Z,17.93
2019-05-15T08:28:29.060Z,18.13
2019-05-15T08:30:58.106Z,18.18
2019-05-15T08:33:24.063Z,18.33
2019-05-15T08:35:51.839Z,18.11
2019-05-15T08:38:19.094Z,18.11
2019-05-15T08:40:45.793Z,18.27
2019-05-15T08:43:12.415Z,18.47
2019-05-15T08:45:42.338Z,18.53
2019-05-15T08:48:09.447Z,18.61
2019-05-15T08:50:38.891Z,18.44
2019-05-15T08:53:04.769Z,18.31
2019-05-15T08:55:31.507Z,18.25
2019-05-15T08:58:06.631Z,18.09
2019-05-15T09:00:29.447Z,18.28
2019-05-15T09:02:58.131Z,18.29
2019-05-15T09:05:23.951Z,18.36
2019-05-15T09:07:50.686Z,18.36
2019-05-15T09:10:18.448Z,18.51
2019-05-15T09:12:45.485Z,18.72
2019-05-15T09:17:48.797Z,18.55
2019-05-15T09:20:15.622Z,18.60
2019-05-15T09:22:42.242Z,18.30
2019-05-15T09:25:09.143Z,18.54
2019-05-15T09:27:38.102Z,18.84
2019-05-15T09:30:20.000Z,18.95
2019-05-15T09:32:48.477Z,19.01
2019-05-15T09:35:15.056Z,19.36
2019-05-15T09:37:41.961Z,19.68
2019-05-15T09:40:09.360Z,19.86
2019-05-15T09:42:38.737Z,19.54
2019-05-15T09:45:05.226Z,19.42
2019-05-15T09:47:32.765Z,19.44
2019-05-15T09:49:59.464Z,19.72
2019-05-15T09:52:26.079Z,19.89
2019-05-15T09:54:53.237Z,20.08
2019-05-15T09:57:19.929Z,20.19
2019-05-15T09:59:48.799Z,20.33
2019-05-15T10:02:15.135Z,20.45
2019-05-15T10:04:43.262Z,20.37
2019-05-15T10:07:10.107Z,20.21
2019-05-15T10:09:41.765Z,20.11
2019-05-15T10:12:09.249Z,20.31
2019-05-15T10:14:38.615Z,20.19
2019-05-15T10:22:10.110Z,19.36
2019-05-15T10:24:36.957Z,19.35
2019-05-15T10:27:03.806Z,19.21
2019-05-15T10:29:31.539Z,19.27
2019-05-15T10:31:58.366Z,19.40
2019-05-15T10:34:25.975Z,19.66
2019-05-15T10:36:52.860Z,19.70
2019-05-15T10:39:19.739Z,19.44
2019-05-15T10:41:48.226Z,19.36
2019-05-15T10:44:17.986Z,19.19
2019-05-15T10:46:43.770Z,18.79
2019-05-15T10:49:12.007Z,18.72
2019-05-15T10:51:39.741Z,19.02
2019-05-15T10:54:08.595Z,19.31
2019-05-15T10:56:34.958Z,19.39
2019-05-15T10:59:02.183Z,19.44
2019-05-15T11:01:29.299Z,19.50
2019-05-15T11:03:58.667Z,19.16
2019-05-15T11:06:24.662Z,18.98
2019-05-15T11:08:51.700Z,18.74
2019-05-15T11:11:18.771Z,18.67
2019-05-15T11:13:45.704Z,18.62
2019-05-15T11:16:13.603Z,18.54
2019-05-15T11:18:40.403Z,18.65
2019-05-15T11:21:08.252Z,18.61
2019-05-15T11:23:35.015Z,18.16
2019-05-15T11:26:01.672Z,18.31
2019-05-15T11:28:31.959Z,18.53
2019-05-15T11:30:59.459Z,18.80
2019-05-15T11:33:25.461Z,18.82
2019-05-15T11:36:00.901Z,18.63
2019-05-15T11:38:20.724Z,18.81
2019-05-15T11:40:47.404Z,18.82
2019-05-15T11:43:14.075Z,18.80
2019-05-15T11:45:40.949Z,18.92
2019-05-15T11:48:09.001Z,18.97
2019-05-15T11:50:35.936Z,19.13
2019-05-15T11:53:02.877Z,19.21
2019-05-15T11:55:29.489Z,19.31
2019-05-15T11:57:59.248Z,19.28
2019-05-15T12:00:27.210Z,19.14
2019-05-15T12:02:53.671Z,18.93
2019-05-15T12:05:20.549Z,18.45
2019-05-15T12:07:47.893Z,18.31
2019-05-15T12:10:14.988Z,18.17
2019-05-15T12:12:42.426Z,18.41
2019-05-15T12:15:09.090Z,18.50
2019-05-15T12:17:35.908Z,18.61
2019-05-15T12:20:06.215Z,18.88
2019-05-15T12:22:32.573Z,19.16
2019-05-15T12:25:00.429Z,18.76
2019-05-15T12:27:28.408Z,18.86
2019-05-15T12:29:55.351Z,18.61
2019-05-15T12:32:30.062Z,18.23
2019-05-15T12:34:52.326Z,18.30
2019-05-15T12:37:19.863Z,18.02
2019-05-15T12:39:49.155Z,17.79
2019-05-15T13:00:15.345Z,17.96
2019-05-15T13:02:39.934Z,17.74
2019-05-15T13:05:09.787Z,17.72
2019-05-15T13:07:58.046Z,17.82
2019-05-15T13:10:28.786Z,17.79
2019-05-15T13:13:04.958Z,17.88
2019-05-15T13:15:28.186Z,17.82
2019-05-15T13:18:03.549Z,18.06
2019-05-15T13:20:35.095Z,18.00
2019-05-15T13:23:04.362Z,18.04
2019-05-15T13:25:32.982Z,18.24
2019-05-15T13:28:08.769Z,18.32
2019-05-15T13:30:41.270Z,18.27
2019-05-15T13:33:05.930Z,18.19
2019-05-15T13:35:37.913Z,18.35
2019-05-15T13:38:14.156Z,18.23
2019-05-15T13:40:42.721Z,18.03
2019-05-15T13:43:14.260Z,17.91
2019-05-15T13:48:34.768Z,17.46
2019-05-15T13:51:06.210Z,17.30
2019-05-15T13:53:30.491Z,17.28
2019-05-15T13:56:02.235Z,17.22
2019-05-15T13:58:38.743Z,17.43
2019-05-15T14:01:01.629Z,17.38
2019-05-15T14:03:38.874Z,17.26
2019-05-15T14:06:09.443Z,17.37
2019-05-15T14:08:44.091Z,17.21
2019-05-15T14:13:43.596Z,17.35
2019-05-15T14:16:19.253Z,17.49
2019-05-15T14:18:48.001Z,17.58
2019-05-15T14:21:20.380Z,17.22
2019-05-15T14:23:57.729Z,17.00
2019-05-15T14:26:25.512Z,17.04
2019-05-15T14:28:54.187Z,17.03
2019-05-15T14:31:22.719Z,16.98
2019-05-15T14:34:58.360Z,17.19
2019-05-15T14:53:12.203Z,17.36
2019-05-15T14:55:43.903Z,17.63
2019-05-15T14:58:08.279Z,17.54
2019-05-15T15:00:35.285Z,17.43
2019-05-15T15:03:02.064Z,17.39
2019-05-15T15:05:28.836Z,17.31
2019-05-15T15:07:58.357Z,17.24
2019-05-15T15:10:24.168Z,17.04
2019-05-15T15:12:51.065Z,17.08
2019-05-15T15:15:18.080Z,17.28
2019-05-15T15:17:45.017Z,17.44
2019-05-15T15:20:11.604Z,17.57
2019-05-15T15:22:39.459Z,17.52
2019-05-15T15:25:09.939Z,17.55
2019-05-15T15:27:38.679Z,17.79
2019-05-15T15:30:05.379Z,17.73
2019-05-15T15:32:32.044Z,17.84
2019-05-15T15:34:58.854Z,17.64
2019-05-15T15:37:25.506Z,17.54
2019-05-15T15:42:28.494Z,17.34
2019-05-15T15:44:54.894Z,17.45
2019-05-15T15:47:21.478Z,17.53
2019-05-15T15:52:23.089Z,17.36
2019-05-15T15:54:50.954Z,17.55
2019-05-15T15:57:19.209Z,17.56
2019-05-15T15:59:49.087Z,17.39
2019-05-15T16:02:16.049Z,17.28
2019-05-15T16:04:42.862Z,17.36
2019-05-15T16:09:44.079Z,17.66
2019-05-15T16:12:11.134Z,17.58
2019-05-15T16:14:38.131Z,17.51
2019-05-15T16:17:08.583Z,17.67
2019-05-15T16:19:38.333Z,17.70
2019-05-15T16:22:04.589Z,17.65
2019-05-15T16:27:05.747Z,17.33
2019-05-15T16:29:32.482Z,17.22
2019-05-15T16:31:59.093Z,17.33
2019-05-15T16:34:28.551Z,17.44
2019-05-15T16:36:55.426Z,17.56
2019-05-15T16:39:22.009Z,17.52
2019-05-15T16:41:51.190Z,17.42
2019-05-15T16:44:17.952Z,17.40
2019-05-15T16:46:47.983Z,17.41
2019-05-15T16:49:18.716Z,17.48
2019-05-15T16:51:49.002Z,17.49
2019-05-15T16:54:14.837Z,17.36
2019-05-15T16:56:43.295Z,17.05
2019-05-15T16:59:09.904Z,17.07
2019-05-15T17:01:39.177Z,17.16
2019-05-15T17:04:08.603Z,17.27
2019-05-15T17:06:35.477Z,17.22
2019-05-15T17:09:02.098Z,17.14
2019-05-15T17:11:32.395Z,17.09
2019-05-15T17:13:59.422Z,17.24
2019-05-15T17:16:26.326Z,17.21
2019-05-15T17:18:58.143Z,17.10
2019-05-15T17:21:28.269Z,17.00
2019-05-15T17:23:54.238Z,17.17
2019-05-15T17:26:22.381Z,17.22
2019-05-15T17:28:49.227Z,17.28
2019-05-15T17:31:17.965Z,17.59
2019-05-15T17:33:48.949Z,17.53
2019-05-15T17:36:18.457Z,17.42
2019-05-15T17:38:44.444Z,17.25
2019-05-15T17:41:13.316Z,17.12
2019-05-15T17:43:39.904Z,17.04
2019-05-15T17:46:08.703Z,16.93
2019-05-15T17:48:38.811Z,16.83
2019-05-15T17:51:05.620Z,16.81
2019-05-15T17:53:34.113Z,16.80
2019-05-15T17:56:02.389Z,16.63
2019-05-15T17:58:29.023Z,16.55
2019-05-15T18:00:55.932Z,16.37
2019-05-15T18:03:28.753Z,16.21
2019-05-15T18:05:55.881Z,16.03
2019-05-15T18:08:22.474Z,15.93
2019-05-15T18:10:51.191Z,15.98
2019-05-15T18:13:17.780Z,15.85
2019-05-15T18:15:45.381Z,15.82
2019-05-15T18:28:31.421Z,15.95
2019-05-15T18:30:58.817Z,15.84
2019-05-15T18:33:27.860Z,15.84
2019-05-15T18:35:57.934Z,15.92
2019-05-15T18:38:23.980Z,15.57
2019-05-15T18:40:50.817Z,15.23
2019-05-15T18:45:51.493Z,15.57
2019-05-15T18:51:21.238Z,15.71
2019-05-15T18:53:33.467Z,16.24
2019-05-15T18:56:00.250Z,16.22
2019-05-15T18:58:26.827Z,16.24
2019-05-15T19:00:58.786Z,16.10
2019-05-15T19:03:27.764Z,16.16
2019-05-15T19:05:53.917Z,16.25
2019-05-15T19:08:22.173Z,16.11
2019-05-15T19:10:48.764Z,16.24
2019-05-15T19:13:15.537Z,16.27
2019-05-15T19:15:48.360Z,16.17
2019-05-15T19:18:15.180Z,16.04
2019-05-15T19:20:41.865Z,15.87
2019-05-15T19:28:18.743Z,15.98
2019-05-15T19:30:44.888Z,15.98
2019-05-15T19:33:11.476Z,16.02
2019-05-15T19:35:40.838Z,16.07
2019-05-15T19:38:07.611Z,15.90
2019-05-15T19:40:34.204Z,15.71
2019-05-15T19:43:04.029Z,15.96
2019-05-15T19:45:30.741Z,15.98
2019-05-15T19:47:58.698Z,15.91
2019-05-15T19:50:29.346Z,16.13
2019-05-15T19:52:56.200Z,16.11
2019-05-15T19:55:25.231Z,15.99
2019-05-15T19:57:55.136Z,15.98
2019-05-15T20:00:21.718Z,16.05
2019-05-15T20:02:48.648Z,16.04
2019-05-15T20:05:18.952Z,16.20
2019-05-15T20:07:47.869Z,16.16
2019-05-15T20:10:14.537Z,16.33
2019-05-15T20:12:45.078Z,16.23
2019-05-15T20:15:11.754Z,16.03
2019-05-15T20:17:38.740Z,16.16
2019-05-15T20:20:08.682Z,16.19
2019-05-15T20:22:37.536Z,16.09
2019-05-15T20:25:04.286Z,16.04
2019-05-15T20:27:32.964Z,16.00
2019-05-15T20:29:59.809Z,16.06
2019-05-15T20:32:27.855Z,16.04
2019-05-15T20:40:01.623Z,16.38
2019-05-15T20:42:28.388Z,16.32
2019-05-15T20:44:55.084Z,16.14
2019-05-15T20:47:28.005Z,16.08
2019-05-15T20:49:54.319Z,15.90
2019-05-15T20:52:21.845Z,15.93
2019-05-15T20:54:49.993Z,15.92
2019-05-15T20:57:16.853Z,15.91
2019-05-15T20:59:43.442Z,15.82
2019-05-15T21:02:12.070Z,15.88
2019-05-15T21:04:38.668Z,15.87
2019-05-15T21:07:05.529Z,15.77
2019-05-15T21:09:34.645Z,15.62
2019-05-15T21:12:01.227Z,15.69
2019-05-15T21:14:28.111Z,15.77
2019-05-15T21:16:58.856Z,15.63
2019-05-15T21:19:25.102Z,15.75
2019-05-15T21:21:52.010Z,15.66
2019-05-15T21:24:21.452Z,15.64
2019-05-15T21:26:48.844Z,15.78
2019-05-15T21:29:15.605Z,15.90
2019-05-15T21:31:49.034Z,15.74
2019-05-15T21:34:15.419Z,15.68
2019-05-15T21:36:42.079Z,15.75
2019-05-15T21:39:10.145Z,15.71
2019-05-15T21:41:38.705Z,15.65
2019-05-15T21:44:05.505Z,15.52
2019-05-15T21:46:34.269Z,15.59
2019-05-15T21:49:00.953Z,15.83
2019-05-15T21:51:28.110Z,15.61
2019-05-15T21:54:01.275Z,15.42
2019-05-15T21:56:27.975Z,15.53
2019-05-15T21:58:54.622Z,15.58
2019-05-15T22:01:28.689Z,15.58
2019-05-15T22:03:55.457Z,15.56
2019-05-15T22:06:22.161Z,15.62
2019-05-15T22:08:52.464Z,15.70
2019-05-15T22:11:21.926Z,15.68
2019-05-15T22:13:49.153Z,15.54
2019-05-15T22:16:18.410Z,15.51
2019-05-15T22:18:45.150Z,15.44
2019-05-15T22:21:12.145Z,15.54
2019-05-15T22:23:40.648Z,15.50
2019-05-15T22:26:07.251Z,15.52
2019-05-15T22:28:34.127Z,15.24
2019-05-15T22:31:04.288Z,15.17
2019-05-15T22:33:30.986Z,15.17
2019-05-15T22:35:59.272Z,15.22
2019-05-15T22:38:28.572Z,15.14
2019-05-15T22:40:55.258Z,15.05
2019-05-15T22:43:21.841Z,15.16
2019-05-15T22:45:49.924Z,15.39
2019-05-15T22:48:18.276Z,15.28
2019-05-15T22:50:45.148Z,15.18
2019-05-15T22:53:13.891Z,15.21
2019-05-15T22:55:40.767Z,15.08
2019-05-15T22:58:08.727Z,15.08
2019-05-15T23:00:39.276Z,15.24
2019-05-15T23:03:08.222Z,15.24
2019-05-15T23:05:34.876Z,15.28
2019-05-15T23:08:03.046Z,15.36
2019-05-15T23:10:29.895Z,15.50
2019-05-15T23:12:58.092Z,15.37
2019-05-15T23:15:28.146Z,15.44
2019-05-15T23:17:54.908Z,15.55
2019-05-15T23:20:21.662Z,15.37
2019-05-15T23:22:51.074Z,15.46
2019-05-15T23:25:18.234Z,15.56
2019-05-15T23:27:45.095Z,15.55
2019-05-15T23:30:13.732Z,15.55
2019-05-15T23:32:40.588Z,15.67
2019-05-15T23:35:07.418Z,15.77
2019-05-15T23:37:35.825Z,15.73
2019-05-15T23:40:02.419Z,15.69
2019-05-15T23:42:29.463Z,15.60
2019-05-15T23:45:01.649Z,15.59
2019-05-15T23:47:28.662Z,15.56
2019-05-15T23:49:57.762Z,15.57
2019-05-15T23:52:27.576Z,15.58
2019-05-15T23:54:54.450Z,15.61
2019-05-15T23:57:21.033Z,15.52
2019-05-15T23:59:49.639Z,15.54
